createdAt,value
2022-07-29T00:02:26.129Z,1.90
2022-07-29T00:04:53.001Z,1.83
2022-07-29T00:07:19.710Z,2.10
2022-07-29T00:09:51.951Z,2.03
2022-07-29T00:12:25.480Z,2.00
2022-07-29T00:14:56.625Z,2.30
2022-07-29T00:17:24.622Z,1.83
2022-07-29T00:19:51.432Z,2.30
2022-07-29T00:22:18.012Z,1.90
2022-07-29T00:24:44.555Z,1.80
2022-07-29T00:27:11.031Z,2.17
2022-07-29T00:29:37.604Z,2.17
2022-07-29T00:32:04.441Z,2.70
2022-07-29T00:34:50.196Z,2.20
2022-07-29T00:37:17.154Z,2.03
2022-07-29T00:39:43.768Z,1.97
2022-07-29T00:42:10.811Z,2.47
2022-07-29T00:44:41.815Z,2.03
2022-07-29T00:47:09.318Z,2.50
2022-07-29T00:49:36.336Z,1.67
2022-07-29T00:52:04.208Z,2.10
2022-07-29T00:54:31.174Z,2.10
2022-07-29T00:56:59.748Z,1.70
2022-07-29T00:59:34.687Z,2.10
2022-07-29T01:02:03.214Z,2.10
2022-07-29T01:04:30.707Z,1.83
2022-07-29T01:06:57.443Z,2.00
2022-07-29T01:09:43.219Z,2.30
2022-07-29T01:12:11.644Z,2.47
2022-07-29T01:14:38.597Z,2.20
2022-07-29T01:17:13.974Z,2.27
2022-07-29T01:20:08.299Z,1.83
2022-07-29T01:22:34.841Z,2.13
2022-07-29T01:25:26.061Z,2.17
2022-07-29T01:28:00.957Z,1.80
2022-07-29T01:30:28.277Z,1.93
2022-07-29T01:33:01.692Z,2.10
2022-07-29T01:35:35.184Z,1.87
2022-07-29T01:38:08.157Z,2.20
2022-07-29T01:40:36.869Z,2.03
2022-07-29T01:43:10.553Z,1.60
2022-07-29T01:45:43.077Z,2.07
2022-07-29T01:48:24.717Z,2.10
2022-07-29T01:51:17.352Z,2.23
2022-07-29T01:53:49.106Z,2.20
2022-07-29T01:56:17.887Z,2.57
2022-07-29T01:58:44.926Z,1.90
2022-07-29T02:01:12.633Z,1.83
2022-07-29T02:03:40.191Z,2.30
2022-07-29T02:06:08.047Z,2.20
2022-07-29T02:08:34.971Z,1.93
2022-07-29T02:11:03.323Z,2.20
2022-07-29T02:13:30.973Z,2.60
2022-07-29T02:15:58.458Z,2.70
2022-07-29T02:18:26.587Z,2.30
2022-07-29T02:20:54.906Z,2.33
2022-07-29T02:23:24.049Z,2.40
2022-07-29T02:25:54.174Z,1.93
2022-07-29T02:28:22.258Z,2.43
2022-07-29T02:30:50.379Z,2.30
2022-07-29T02:33:17.541Z,2.27
2022-07-29T02:35:45.033Z,1.90
2022-07-29T02:38:33.342Z,2.43
2022-07-29T02:41:01.491Z,2.33
2022-07-29T02:43:29.070Z,2.97
2022-07-29T02:45:56.040Z,3.07
2022-07-29T02:48:35.905Z,2.73
2022-07-29T02:51:07.783Z,1.90
2022-07-29T02:53:35.697Z,2.03
2022-07-29T02:56:14.597Z,2.50
2022-07-29T02:58:49.846Z,2.10
2022-07-29T03:01:25.346Z,2.10
2022-07-29T03:03:54.295Z,2.30
2022-07-29T03:06:37.398Z,2.70
2022-07-29T03:09:12.029Z,2.27
2022-07-29T03:11:46.091Z,2.07
2022-07-29T03:14:21.439Z,2.30
2022-07-29T03:16:48.829Z,2.60
2022-07-29T03:19:15.680Z,2.80
2022-07-29T03:21:42.435Z,2.60
2022-07-29T03:24:10.800Z,2.50
2022-07-29T03:26:38.068Z,2.30
2022-07-29T03:29:04.704Z,2.37
2022-07-29T03:31:32.116Z,2.70
2022-07-29T03:34:00.260Z,2.80
2022-07-29T03:36:26.840Z,2.20
2022-07-29T03:38:53.459Z,2.40
2022-07-29T03:41:22.431Z,2.67
2022-07-29T03:43:50.542Z,3.03
2022-07-29T03:46:18.467Z,1.93
2022-07-29T03:48:50.091Z,2.47
2022-07-29T03:51:16.899Z,2.03
2022-07-29T03:53:43.604Z,3.00
2022-07-29T03:56:11.191Z,2.63
2022-07-29T03:58:38.704Z,2.90
2022-07-29T04:01:05.379Z,2.63
2022-07-29T04:03:32.029Z,2.37
2022-07-29T04:06:09.047Z,2.77
2022-07-29T04:08:35.682Z,2.40
2022-07-29T04:11:03.015Z,3.10
2022-07-29T04:13:29.760Z,2.43
2022-07-29T04:15:56.476Z,2.63
2022-07-29T04:18:23.059Z,2.57
2022-07-29T04:20:49.639Z,3.10
2022-07-29T04:23:16.554Z,2.20
2022-07-29T04:25:43.597Z,2.53
2022-07-29T04:28:10.553Z,2.50
2022-07-29T04:30:38.396Z,2.30
2022-07-29T04:33:07.381Z,2.17
2022-07-29T04:35:39.357Z,2.97
2022-07-29T04:38:17.349Z,2.17
2022-07-29T04:40:44.252Z,2.20
2022-07-29T04:43:10.917Z,2.47
2022-07-29T04:45:39.726Z,2.60
2022-07-29T04:48:06.521Z,2.50
2022-07-29T04:50:33.486Z,2.10
2022-07-29T04:53:00.004Z,3.97
2022-07-29T04:55:27.241Z,2.77
2022-07-29T04:57:53.835Z,2.30
2022-07-29T05:00:20.406Z,2.93
2022-07-29T05:02:46.992Z,1.90
2022-07-29T05:05:13.656Z,2.03
2022-07-29T05:07:42.267Z,2.20
2022-07-29T05:10:10.351Z,2.37
2022-07-29T05:12:36.981Z,2.00
2022-07-29T05:15:03.946Z,2.60
2022-07-29T05:17:30.540Z,2.00
2022-07-29T05:19:57.106Z,2.53
2022-07-29T05:22:24.185Z,2.50
2022-07-29T05:24:50.723Z,2.83
2022-07-29T05:27:17.611Z,2.03
2022-07-29T05:29:45.834Z,2.20
2022-07-29T05:32:13.664Z,3.33
2022-07-29T05:34:50.149Z,3.10
2022-07-29T05:37:18.947Z,3.20
2022-07-29T05:39:48.918Z,3.20
2022-07-29T05:42:17.363Z,3.20
2022-07-29T05:44:43.915Z,3.20
2022-07-29T05:47:10.548Z,3.10
2022-07-29T05:49:37.224Z,3.30
2022-07-29T05:52:04.299Z,3.07
2022-07-29T05:54:30.861Z,2.67
2022-07-29T05:56:57.429Z,2.63
2022-07-29T05:59:28.308Z,2.23
2022-07-29T06:01:58.112Z,2.43
2022-07-29T06:04:25.025Z,2.50
2022-07-29T06:06:51.836Z,3.07
2022-07-29T06:09:18.413Z,2.37
2022-07-29T06:11:44.959Z,2.20
2022-07-29T06:14:11.518Z,2.23
2022-07-29T06:16:38.133Z,2.43
2022-07-29T06:19:05.400Z,2.17
2022-07-29T06:21:31.973Z,2.87
2022-07-29T06:23:58.680Z,2.17
2022-07-29T06:26:31.472Z,3.13
2022-07-29T06:28:59.620Z,2.50
2022-07-29T06:31:26.287Z,2.53
2022-07-29T06:33:54.599Z,2.50
2022-07-29T06:36:21.713Z,3.20
2022-07-29T06:38:51.318Z,2.53
2022-07-29T06:41:18.975Z,3.17
2022-07-29T06:43:51.030Z,2.20
2022-07-29T06:46:22.408Z,2.80
2022-07-29T06:48:49.749Z,2.33
2022-07-29T06:51:17.356Z,2.40
2022-07-29T06:53:58.323Z,2.40
2022-07-29T06:56:28.873Z,2.50
2022-07-29T06:58:55.416Z,2.43
2022-07-29T07:01:22.144Z,2.10
2022-07-29T07:03:49.261Z,2.17
2022-07-29T07:06:15.892Z,2.60
2022-07-29T07:08:42.422Z,2.27
2022-07-29T07:11:09.707Z,1.87
2022-07-29T07:13:36.775Z,2.50
2022-07-29T07:16:03.924Z,2.50
2022-07-29T07:18:30.727Z,2.90
2022-07-29T07:20:57.922Z,2.30
2022-07-29T07:23:24.902Z,2.23
2022-07-29T07:25:52.131Z,2.50
2022-07-29T07:28:18.850Z,2.73
2022-07-29T07:30:51.314Z,2.60
2022-07-29T07:33:17.871Z,2.27
2022-07-29T07:35:45.261Z,2.37
2022-07-29T07:38:11.859Z,2.50
2022-07-29T07:40:38.436Z,2.90
2022-07-29T07:43:05.140Z,2.50
2022-07-29T07:45:35.070Z,2.63
2022-07-29T07:48:01.814Z,2.60
2022-07-29T07:50:28.456Z,2.70
2022-07-29T07:52:58.819Z,2.40
2022-07-29T07:55:26.591Z,2.63
2022-07-29T07:57:54.024Z,2.70
2022-07-29T08:00:22.793Z,2.50
2022-07-29T08:02:51.018Z,3.07
2022-07-29T08:05:18.232Z,2.70
2022-07-29T08:07:46.399Z,2.80
2022-07-29T08:10:14.673Z,2.57
2022-07-29T08:12:42.668Z,2.63
2022-07-29T08:15:09.753Z,3.10
2022-07-29T08:17:36.350Z,2.37
2022-07-29T08:20:03.933Z,2.60
2022-07-29T08:22:30.561Z,2.40
2022-07-29T08:24:57.191Z,2.63
2022-07-29T08:27:45.226Z,10.50
2022-07-29T08:30:11.333Z,4.73
2022-07-29T08:32:53.289Z,2.10
2022-07-29T08:35:22.352Z,2.40
2022-07-29T08:37:48.965Z,2.20
2022-07-29T08:40:15.819Z,1.87
2022-07-29T08:42:42.409Z,3.30
2022-07-29T08:45:09.373Z,2.20
2022-07-29T08:47:40.352Z,2.50
2022-07-29T08:50:08.671Z,2.57
2022-07-29T08:52:38.166Z,2.47
2022-07-29T08:55:06.495Z,2.73
2022-07-29T08:57:34.361Z,3.23
2022-07-29T09:00:11.321Z,2.77
2022-07-29T09:02:43.198Z,2.47
2022-07-29T09:05:13.402Z,2.93
2022-07-29T09:07:40.156Z,2.63
2022-07-29T09:10:07.407Z,2.90
2022-07-29T09:12:37.962Z,3.00
2022-07-29T09:15:05.150Z,3.07
2022-07-29T09:17:49.224Z,2.70
2022-07-29T09:20:21.275Z,2.20
2022-07-29T09:22:51.774Z,3.23
2022-07-29T09:25:37.884Z,2.57
2022-07-29T09:28:07.810Z,2.43
2022-07-29T09:30:34.940Z,2.67
2022-07-29T09:33:03.888Z,2.80
2022-07-29T09:35:31.786Z,5.40
2022-07-29T09:37:58.331Z,2.60
2022-07-29T09:40:27.734Z,3.03
2022-07-29T09:42:58.122Z,3.13
2022-07-29T09:45:33.297Z,2.60
2022-07-29T09:48:01.310Z,2.63
2022-07-29T09:50:39.638Z,2.40
2022-07-29T09:53:06.581Z,2.60
2022-07-29T09:55:33.247Z,2.57
2022-07-29T09:58:20.491Z,2.80
2022-07-29T10:00:48.565Z,3.30
2022-07-29T10:03:16.667Z,2.60
2022-07-29T10:05:44.184Z,2.90
2022-07-29T10:08:13.287Z,3.27
2022-07-29T10:10:42.471Z,2.83
2022-07-29T10:13:16.492Z,2.83
2022-07-29T10:15:46.021Z,2.43
2022-07-29T10:18:14.287Z,2.77
2022-07-29T10:20:42.073Z,2.70
2022-07-29T10:23:09.892Z,2.47
2022-07-29T10:25:36.503Z,3.00
2022-07-29T10:28:03.760Z,3.03
2022-07-29T10:30:30.661Z,2.80
2022-07-29T10:33:18.939Z,2.40
2022-07-29T10:36:03.721Z,3.33
2022-07-29T10:38:50.211Z,2.97
2022-07-29T10:41:43.868Z,2.83
2022-07-29T10:44:19.078Z,3.13
2022-07-29T10:46:46.519Z,2.30
2022-07-29T10:49:15.728Z,2.63
2022-07-29T10:51:51.570Z,2.80
2022-07-29T10:54:42.441Z,2.30
2022-07-29T10:57:16.705Z,2.43
2022-07-29T10:59:44.734Z,2.70
2022-07-29T11:02:41.147Z,2.80
2022-07-29T11:05:18.730Z,2.63
2022-07-29T11:08:19.678Z,2.27
2022-07-29T11:10:49.060Z,2.87
2022-07-29T11:13:44.060Z,2.90
2022-07-29T11:16:10.633Z,2.90
2022-07-29T11:18:41.930Z,2.37
2022-07-29T11:21:51.666Z,3.37
2022-07-29T11:24:29.621Z,3.10
2022-07-29T11:27:13.178Z,3.17
2022-07-29T11:29:50.230Z,2.97
2022-07-29T11:32:22.812Z,3.40
2022-07-29T11:35:17.061Z,3.10
2022-07-29T11:37:52.802Z,2.73
2022-07-29T11:40:24.506Z,2.40
2022-07-29T11:42:52.592Z,3.13
2022-07-29T11:45:44.361Z,2.57
2022-07-29T11:48:29.643Z,2.50
2022-07-29T11:50:58.697Z,2.70
2022-07-29T11:53:25.870Z,2.60
2022-07-29T11:55:58.370Z,2.80
2022-07-29T11:58:26.225Z,3.13
2022-07-29T12:00:55.622Z,3.10
2022-07-29T12:03:34.977Z,2.87
2022-07-29T12:06:02.237Z,2.60
2022-07-29T12:08:28.776Z,2.50
2022-07-29T12:10:55.360Z,3.20
2022-07-29T12:13:22.339Z,3.10
2022-07-29T12:15:59.709Z,3.50
2022-07-29T12:18:27.825Z,2.93
2022-07-29T12:21:04.637Z,2.73
2022-07-29T12:23:35.645Z,2.97
2022-07-29T12:26:07.220Z,3.23
2022-07-29T12:28:39.270Z,2.97
2022-07-29T12:31:06.165Z,3.83
2022-07-29T12:33:35.875Z,3.17
2022-07-29T12:36:07.680Z,3.07
2022-07-29T12:38:35.865Z,2.90
2022-07-29T12:41:04.421Z,2.40
2022-07-29T12:43:31.441Z,2.87
2022-07-29T12:45:58.512Z,2.60
2022-07-29T12:48:39.137Z,2.97
2022-07-29T12:51:10.043Z,2.57
2022-07-29T12:53:37.552Z,2.90
2022-07-29T12:56:15.541Z,3.20
2022-07-29T12:58:52.660Z,3.50
2022-07-29T13:01:21.019Z,2.73
2022-07-29T13:03:57.652Z,3.57
2022-07-29T13:06:35.716Z,2.63
2022-07-29T13:09:03.892Z,2.57
2022-07-29T13:11:34.208Z,2.57
2022-07-29T13:14:05.897Z,2.60
2022-07-29T13:16:33.957Z,3.03
2022-07-29T13:19:05.581Z,2.80
2022-07-29T13:21:32.123Z,2.93
2022-07-29T13:23:58.670Z,2.50
2022-07-29T13:26:25.193Z,2.90
2022-07-29T13:28:51.754Z,3.17
2022-07-29T13:31:18.306Z,2.97
2022-07-29T13:33:44.932Z,9.20
2022-07-29T13:36:11.483Z,2.57
2022-07-29T13:38:38.308Z,3.27
2022-07-29T13:41:04.938Z,2.90
2022-07-29T13:43:32.157Z,3.23
2022-07-29T13:45:58.756Z,3.27
2022-07-29T13:48:25.370Z,3.00
2022-07-29T13:50:51.966Z,3.30
2022-07-29T13:53:18.550Z,3.57
2022-07-29T13:55:45.300Z,3.57
2022-07-29T13:58:11.956Z,5.60
2022-07-29T14:00:38.582Z,3.77
2022-07-29T14:03:05.536Z,4.00
2022-07-29T14:05:32.052Z,4.47
2022-07-29T14:07:58.618Z,4.97
2022-07-29T14:10:25.464Z,4.17
2022-07-29T14:12:52.028Z,4.50
2022-07-29T14:15:18.727Z,3.83
2022-07-29T14:17:45.249Z,5.03
2022-07-29T14:20:11.880Z,4.50
2022-07-29T14:22:42.389Z,5.03
2022-07-29T14:25:10.691Z,4.60
2022-07-29T14:27:42.735Z,4.50
2022-07-29T14:30:10.196Z,5.93
2022-07-29T14:32:36.950Z,5.37
2022-07-29T14:35:05.216Z,5.20
2022-07-29T14:37:39.364Z,4.83
2022-07-29T14:40:08.768Z,4.67
2022-07-29T14:42:35.439Z,4.70
2022-07-29T14:45:02.047Z,4.47
2022-07-29T14:47:28.633Z,4.47
2022-07-29T14:49:55.583Z,4.07
2022-07-29T14:52:22.092Z,4.40
2022-07-29T14:54:48.685Z,4.90
2022-07-29T14:57:15.215Z,4.43
2022-07-29T14:59:41.823Z,4.40
2022-07-29T15:02:08.422Z,4.70
2022-07-29T15:04:35.485Z,4.43
2022-07-29T15:07:02.818Z,4.00
2022-07-29T15:09:29.328Z,3.90
2022-07-29T15:11:56.318Z,4.80
2022-07-29T15:14:23.292Z,4.03
2022-07-29T15:16:49.822Z,4.07
2022-07-29T15:19:19.247Z,3.80
2022-07-29T15:21:48.230Z,3.80
2022-07-29T15:24:17.506Z,3.93
2022-07-29T15:26:44.528Z,3.90
2022-07-29T15:29:11.281Z,3.93
2022-07-29T15:31:37.809Z,6.70
2022-07-29T15:34:05.973Z,3.87
2022-07-29T15:36:51.443Z,3.37
2022-07-29T15:39:19.720Z,5.30
2022-07-29T15:41:46.484Z,4.00
2022-07-29T15:44:13.054Z,3.80
2022-07-29T15:46:59.317Z,4.23
2022-07-29T15:49:48.725Z,3.77
2022-07-29T15:52:25.283Z,3.23
2022-07-29T15:54:56.917Z,3.50
2022-07-29T15:57:24.602Z,3.60
2022-07-29T15:59:51.869Z,3.20
2022-07-29T16:02:18.916Z,3.57
2022-07-29T16:04:45.423Z,3.10
2022-07-29T16:07:12.344Z,3.57
2022-07-29T16:09:41.047Z,4.23
2022-07-29T16:12:14.964Z,4.17
2022-07-29T16:14:43.438Z,3.63
2022-07-29T16:17:14.382Z,3.60
2022-07-29T16:19:45.313Z,3.40
2022-07-29T16:22:12.372Z,3.00
2022-07-29T16:24:39.153Z,3.13
2022-07-29T16:27:05.812Z,3.63
2022-07-29T16:29:32.363Z,3.60
2022-07-29T16:31:58.921Z,3.93
2022-07-29T16:34:25.698Z,3.27
2022-07-29T16:36:52.245Z,2.97
2022-07-29T16:39:18.766Z,3.60
2022-07-29T16:41:45.380Z,3.10
2022-07-29T16:44:11.973Z,3.00
2022-07-29T16:46:41.400Z,3.50
2022-07-29T16:49:08.237Z,3.97
2022-07-29T16:51:34.955Z,3.50
2022-07-29T16:54:01.496Z,3.30
2022-07-29T16:56:27.977Z,3.83
2022-07-29T16:58:54.524Z,3.10
2022-07-29T17:01:21.117Z,3.20
2022-07-29T17:04:06.286Z,2.90
2022-07-29T17:06:38.372Z,3.70
2022-07-29T17:09:06.894Z,3.00
2022-07-29T17:11:53.304Z,2.83
2022-07-29T17:14:24.122Z,3.03
2022-07-29T17:17:00.653Z,3.63
2022-07-29T17:19:33.831Z,3.43
2022-07-29T17:22:09.464Z,3.43
2022-07-29T17:24:38.974Z,2.93
2022-07-29T17:27:08.496Z,3.03
2022-07-29T17:29:35.220Z,3.30
2022-07-29T17:32:01.831Z,3.57
2022-07-29T17:34:28.344Z,3.60
2022-07-29T17:36:55.013Z,3.40
2022-07-29T17:39:21.757Z,3.80
2022-07-29T17:41:48.382Z,3.10
2022-07-29T17:44:15.081Z,3.37
2022-07-29T17:46:41.608Z,3.90
2022-07-29T17:49:08.299Z,3.33
2022-07-29T17:51:34.871Z,3.57
2022-07-29T17:54:01.621Z,3.50
2022-07-29T17:56:28.154Z,3.77
2022-07-29T17:58:57.271Z,3.03
2022-07-29T18:01:24.145Z,3.40
2022-07-29T18:03:50.834Z,3.37
2022-07-29T18:06:17.367Z,3.30
2022-07-29T18:08:47.430Z,4.07
2022-07-29T18:11:15.307Z,4.13
2022-07-29T18:13:41.947Z,3.70
2022-07-29T18:16:11.896Z,3.60
2022-07-29T18:18:38.519Z,4.07
2022-07-29T18:21:05.416Z,3.30
2022-07-29T18:23:32.103Z,4.20
2022-07-29T18:25:58.738Z,4.07
2022-07-29T18:28:25.352Z,3.50
2022-07-29T18:30:52.827Z,3.40
2022-07-29T18:33:22.388Z,3.97
2022-07-29T18:35:50.680Z,3.70
2022-07-29T18:38:17.363Z,4.07
2022-07-29T18:40:45.546Z,3.23
2022-07-29T18:43:12.659Z,4.10
2022-07-29T18:45:39.599Z,6.63
2022-07-29T18:48:08.405Z,3.47
2022-07-29T18:50:39.600Z,3.10
2022-07-29T18:53:06.175Z,3.53
2022-07-29T18:55:32.809Z,3.70
2022-07-29T18:57:59.462Z,3.17
2022-07-29T19:00:26.747Z,3.27
2022-07-29T19:02:53.858Z,3.57
2022-07-29T19:05:21.071Z,3.70
2022-07-29T19:07:47.553Z,3.70
2022-07-29T19:10:14.399Z,3.60
2022-07-29T19:12:41.014Z,3.23
2022-07-29T19:15:08.368Z,3.90
2022-07-29T19:17:34.950Z,3.30
2022-07-29T19:20:02.172Z,3.40
2022-07-29T19:22:28.703Z,3.70
2022-07-29T19:24:55.250Z,3.50
2022-07-29T19:27:21.782Z,3.40
2022-07-29T19:29:48.416Z,3.00
2022-07-29T19:32:24.894Z,3.77
2022-07-29T19:35:11.251Z,3.40
2022-07-29T19:37:37.810Z,3.40
2022-07-29T19:40:05.627Z,3.30
2022-07-29T19:42:32.156Z,3.47
2022-07-29T19:44:58.792Z,3.60
2022-07-29T19:47:25.933Z,3.73
2022-07-29T19:49:52.543Z,3.13
2022-07-29T19:52:19.152Z,3.30
2022-07-29T19:54:45.702Z,3.60
2022-07-29T19:57:12.218Z,3.67
2022-07-29T19:59:39.041Z,3.77
2022-07-29T20:02:05.754Z,3.83
2022-07-29T20:04:32.393Z,3.60
2022-07-29T20:07:01.654Z,3.63
2022-07-29T20:09:28.776Z,3.27
2022-07-29T20:11:55.391Z,3.53
2022-07-29T20:14:22.478Z,3.37
2022-07-29T20:16:49.698Z,3.40
2022-07-29T20:19:16.988Z,3.73
2022-07-29T20:21:44.264Z,3.30
2022-07-29T20:24:11.115Z,3.50
2022-07-29T20:26:38.238Z,3.30
2022-07-29T20:29:05.359Z,3.60
2022-07-29T20:31:32.775Z,3.67
2022-07-29T20:34:00.638Z,3.40
2022-07-29T20:36:28.099Z,4.33
2022-07-29T20:38:55.746Z,4.00
2022-07-29T20:41:22.568Z,3.50
2022-07-29T20:43:52.713Z,3.30
2022-07-29T20:46:19.425Z,3.40
2022-07-29T20:48:47.043Z,3.23
2022-07-29T20:51:14.473Z,3.20
2022-07-29T20:53:41.561Z,3.27
2022-07-29T20:56:08.326Z,4.03
2022-07-29T20:58:36.233Z,3.53
2022-07-29T21:01:03.494Z,3.60
2022-07-29T21:03:30.110Z,3.50
2022-07-29T21:05:56.754Z,3.43
2022-07-29T21:08:23.350Z,20.00
2022-07-29T21:10:49.984Z,15.13
2022-07-29T21:13:17.056Z,9.13
2022-07-29T21:15:46.346Z,3.80
2022-07-29T21:18:32.425Z,3.97
2022-07-29T21:21:03.721Z,3.23
2022-07-29T21:23:30.906Z,3.83
2022-07-29T21:25:57.803Z,4.20
2022-07-29T21:28:27.288Z,3.40
2022-07-29T21:30:54.863Z,4.17
2022-07-29T21:33:21.863Z,4.90
2022-07-29T21:36:26.761Z,4.30
2022-07-29T21:38:35.861Z,4.27
2022-07-29T21:41:02.892Z,3.57
2022-07-29T21:43:29.544Z,3.87
2022-07-29T21:45:57.133Z,3.80
2022-07-29T21:48:25.329Z,3.87
2022-07-29T21:50:52.038Z,3.40
2022-07-29T21:53:21.985Z,3.80
2022-07-29T21:55:54.302Z,4.70
2022-07-29T21:58:23.004Z,4.20
2022-07-29T22:00:49.669Z,4.37
2022-07-29T22:03:16.680Z,4.30
2022-07-29T22:05:44.175Z,3.80
2022-07-29T22:08:10.846Z,4.47
2022-07-29T22:10:37.540Z,4.07
2022-07-29T22:13:04.664Z,4.43
2022-07-29T22:15:31.296Z,5.00
2022-07-29T22:17:57.959Z,3.90
2022-07-29T22:20:24.967Z,4.50
2022-07-29T22:22:51.621Z,4.13
2022-07-29T22:25:18.297Z,4.53
2022-07-29T22:27:45.198Z,5.00
2022-07-29T22:30:12.696Z,4.47
2022-07-29T22:32:39.531Z,5.07
2022-07-29T22:35:06.421Z,4.30
2022-07-29T22:37:33.377Z,4.73
2022-07-29T22:39:59.908Z,3.93
2022-07-29T22:42:26.526Z,4.00
2022-07-29T22:44:53.291Z,4.80
2022-07-29T22:47:38.793Z,4.57
2022-07-29T22:50:06.807Z,4.90
2022-07-29T22:52:33.355Z,4.23
2022-07-29T22:54:59.860Z,5.43
2022-07-29T22:57:26.433Z,4.93
2022-07-29T22:59:53.317Z,4.40
2022-07-29T23:02:19.864Z,4.37
2022-07-29T23:04:46.431Z,4.40
2022-07-29T23:07:12.981Z,4.03
2022-07-29T23:09:39.825Z,4.23
2022-07-29T23:12:06.919Z,4.67
2022-07-29T23:14:33.588Z,4.70
2022-07-29T23:17:00.568Z,5.27
2022-07-29T23:19:27.397Z,4.13
2022-07-29T23:21:54.048Z,3.90
2022-07-29T23:24:20.627Z,4.90
2022-07-29T23:26:47.155Z,5.23
2022-07-29T23:29:13.664Z,4.33
2022-07-29T23:31:47.766Z,5.40
2022-07-29T23:34:14.870Z,4.90
2022-07-29T23:36:42.325Z,5.33
2022-07-29T23:39:13.226Z,4.93
2022-07-29T23:41:40.027Z,5.00
2022-07-29T23:44:06.619Z,4.77
2022-07-29T23:46:33.352Z,4.60
2022-07-29T23:49:00.419Z,4.47
2022-07-29T23:51:29.101Z,5.03
2022-07-29T23:53:56.177Z,4.90
2022-07-29T23:56:23.241Z,5.20
2022-07-29T23:58:50.114Z,5.60
